Time;durP1;ratioP1;P1;durP2;ratioP2;P2;SDS_P1;SDS_P2;PMS_P1;PMS_P2;Temp;Humidity;BMP_temperature;BMP_pressure;BME280_temperature;BME280_humidity;BME280_pressure;Samples;Min_cycle;Max_cycle;Signal;HPM_P1;HPM_P2
2022/04/06 00:01:20;;;;;;;1.50;0.90;;;22.00;50.70;;;;;;5032382;28;20431;-89
2022/04/06 00:03:45;;;;;;;1.40;0.90;;;22.00;50.70;;;;;;5045744;28;20168;-89
2022/04/06 00:06:11;;;;;;;1.20;0.90;;;22.00;50.70;;;;;;5026788;28;20196;-89
2022/04/06 00:08:37;;;;;;;1.00;0.80;;;22.00;50.70;;;;;;5025288;28;20216;-89
2022/04/06 00:11:03;;;;;;;1.43;0.80;;;22.00;50.70;;;;;;5025220;28;20175;-89
2022/04/06 00:13:29;;;;;;;0.97;0.80;;;22.00;50.70;;;;;;5025708;28;20231;-90
2022/04/06 00:15:55;;;;;;;1.67;1.10;;;22.00;50.70;;;;;;5025348;28;20191;-90
2022/04/06 00:18:21;;;;;;;1.07;0.90;;;22.00;50.70;;;;;;5025384;28;20928;-90
2022/04/06 00:20:47;;;;;;;1.00;0.80;;;22.00;50.70;;;;;;5025554;28;20191;-89
2022/04/06 00:23:14;;;;;;;1.00;0.70;;;22.00;50.80;;;;;;5025358;28;20422;-89
2022/04/06 00:25:40;;;;;;;1.00;0.80;;;22.00;50.70;;;;;;5024877;28;20539;-90
2022/04/06 00:28:06;;;;;;;1.20;0.80;;;22.00;50.70;;;;;;5026167;28;20407;-89
2022/04/06 00:30:31;;;;;;;1.00;0.90;;;22.00;50.70;;;;;;5026542;28;20175;-89
2022/04/06 00:32:57;;;;;;;1.30;0.80;;;22.00;50.70;;;;;;5026396;28;20199;-89
2022/04/06 00:35:29;;;;;;;0.93;0.80;;;22.00;50.70;;;;;;5025256;28;20580;-89
2022/04/06 00:38:02;;;;;;;1.20;0.83;;;22.00;50.70;;;;;;5024763;28;20168;-88
2022/04/06 00:40:29;;;;;;;0.90;0.70;;;22.00;50.70;;;;;;5007900;28;20451;-89
2022/04/06 00:42:55;;;;;;;1.17;0.80;;;22.00;50.70;;;;;;5032391;28;20424;-90
2022/04/06 00:45:22;;;;;;;0.90;0.73;;;22.00;50.70;;;;;;5006418;28;20466;-89
2022/04/06 00:47:50;;;;;;;1.00;0.80;;;22.00;50.70;;;;;;5005433;28;20923;-89
2022/04/06 00:50:17;;;;;;;1.13;0.80;;;22.00;50.70;;;;;;5021278;28;20420;-89
2022/04/06 00:52:44;;;;;;;1.40;0.80;;;22.00;50.70;;;;;;5004984;28;20420;-89
2022/04/06 00:55:12;;;;;;;1.90;1.80;;;22.00;50.70;;;;;;5021679;28;20937;-90
2022/04/06 00:57:39;;;;;;;1.20;0.90;;;22.00;50.70;;;;;;5006172;28;20420;-89
2022/04/06 01:00:08;;;;;;;1.53;0.80;;;22.00;50.70;;;;;;5005751;28;20432;-89
2022/04/06 01:02:34;;;;;;;0.83;0.70;;;22.00;50.70;;;;;;5025171;28;20521;-90
2022/04/06 01:05:00;;;;;;;1.43;0.80;;;22.00;50.70;;;;;;5040400;28;20493;-89
2022/04/06 01:07:26;;;;;;;1.20;0.70;;;22.00;50.70;;;;;;5036500;28;20418;-89
2022/04/06 01:09:52;;;;;;;1.07;0.70;;;22.00;50.70;;;;;;5017883;28;20420;-89
2022/04/06 01:12:21;;;;;;;0.90;0.70;;;22.00;50.70;;;;;;5016722;28;20478;-89
2022/04/06 01:14:47;;;;;;;1.07;0.80;;;22.00;50.70;;;;;;5021060;28;20180;-89
2022/04/06 01:17:13;;;;;;;1.03;0.80;;;22.00;50.70;;;;;;5022041;28;20412;-89
2022/04/06 01:19:47;;;;;;;1.00;0.80;;;21.90;50.70;;;;;;5040751;28;20936;-89
2022/04/06 01:22:17;;;;;;;0.90;0.70;;;22.00;50.70;;;;;;5036749;28;20451;-89
2022/04/06 01:24:44;;;;;;;1.10;0.80;;;21.90;50.70;;;;;;5040509;28;20463;-89
2022/04/06 01:27:10;;;;;;;1.03;0.87;;;21.90;50.70;;;;;;5021962;28;20415;-89
2022/04/06 01:29:37;;;;;;;1.10;0.80;;;21.90;50.70;;;;;;5019297;28;20459;-88
2022/04/06 01:32:17;;;;;;;2.17;0.90;;;21.90;50.70;;;;;;5018222;28;20416;-89
2022/04/06 01:34:44;;;;;;;0.80;0.70;;;21.90;50.70;;;;;;5023496;28;20423;-88
2022/04/06 01:37:12;;;;;;;1.37;0.90;;;21.90;50.70;;;;;;5025194;28;20466;-89
2022/04/06 01:39:39;;;;;;;1.30;0.97;;;22.00;50.80;;;;;;5019401;28;20446;-89
2022/04/06 01:42:07;;;;;;;1.13;0.77;;;21.90;50.70;;;;;;5018017;28;20431;-88
2022/04/06 01:44:33;;;;;;;0.93;0.80;;;21.90;50.70;;;;;;5019085;28;20423;-89
2022/04/06 01:47:00;;;;;;;1.23;0.80;;;21.90;50.70;;;;;;5017235;28;20779;-88
2022/04/06 01:52:13;;;;;;;0.93;0.70;;;21.90;50.70;;;;;;5018963;28;20418;-88
2022/04/06 01:54:56;;;;;;;1.00;0.80;;;21.90;50.70;;;;;;5042890;28;20419;-90
2022/04/06 01:57:23;;;;;;;1.50;0.90;;;21.90;50.70;;;;;;5028558;28;20433;-88
2022/04/06 01:59:49;;;;;;;1.00;0.80;;;21.90;50.70;;;;;;5026356;28;20427;-89
2022/04/06 02:02:17;;;;;;;1.07;0.93;;;21.90;50.70;;;;;;5027587;28;20430;-88
2022/04/06 02:04:44;;;;;;;1.20;0.70;;;21.90;50.70;;;;;;5026703;28;20192;-90
2022/04/06 02:07:11;;;;;;;1.30;0.90;;;21.90;50.70;;;;;;5026213;28;20593;-90
2022/04/06 02:09:37;;;;;;;1.60;1.10;;;21.90;50.70;;;;;;5027355;28;20933;-89
2022/04/06 02:12:03;;;;;;;1.03;0.80;;;21.90;50.70;;;;;;5026866;28;20510;-89
2022/04/06 02:14:29;;;;;;;2.30;1.57;;;21.90;50.70;;;;;;5025866;28;20495;-89
2022/04/06 02:16:55;;;;;;;0.90;0.70;;;21.90;50.70;;;;;;5026147;28;20449;-90
2022/04/06 02:19:21;;;;;;;1.10;0.90;;;21.90;50.70;;;;;;5026427;28;20427;-89
2022/04/06 02:21:47;;;;;;;1.00;0.90;;;21.90;50.70;;;;;;5022656;28;20173;-88
2022/04/06 02:24:13;;;;;;;1.10;0.90;;;21.90;50.70;;;;;;5020851;28;20765;-89
2022/04/06 02:26:39;;;;;;;1.10;0.80;;;21.90;50.70;;;;;;5026739;28;20534;-90
2022/04/06 02:29:05;;;;;;;1.27;0.90;;;21.90;50.70;;;;;;5028220;28;20419;-89
2022/04/06 02:31:32;;;;;;;1.63;1.00;;;21.90;50.70;;;;;;5027792;28;20427;-88
2022/04/06 02:33:58;;;;;;;1.20;0.90;;;21.90;50.70;;;;;;5026649;28;20882;-90
2022/04/06 02:36:36;;;;;;;0.90;0.80;;;21.90;50.70;;;;;;5027120;28;20423;-89
2022/04/06 02:39:02;;;;;;;1.30;0.90;;;21.90;50.70;;;;;;5019260;28;20427;-90
2022/04/06 02:41:29;;;;;;;0.93;0.70;;;21.90;50.70;;;;;;5027766;28;20440;-89
2022/04/06 02:43:57;;;;;;;1.00;0.90;;;21.90;50.80;;;;;;5026912;28;20431;-89
2022/04/06 02:46:23;;;;;;;1.40;0.77;;;21.90;50.70;;;;;;5025718;28;20458;-89
2022/04/06 02:48:49;;;;;;;1.10;0.70;;;21.90;50.70;;;;;;5025878;28;20492;-90
2022/04/06 02:51:32;;;;;;;0.90;0.70;;;21.90;50.70;;;;;;5026616;28;20188;-89
2022/04/06 02:53:58;;;;;;;1.13;1.00;;;21.90;50.70;;;;;;5030037;28;20179;-89
2022/04/06 02:59:46;;;;;;;1.30;0.70;;;21.90;50.70;;;;;;5024931;28;20191;-89
2022/04/06 03:02:12;;;;;;;0.80;0.70;;;21.80;50.70;;;;;;5026918;28;20431;-89
2022/04/06 03:04:37;;;;;;;1.03;0.80;;;21.80;50.70;;;;;;5025494;28;20279;-89
2022/04/06 03:07:03;;;;;;;1.77;0.77;;;21.80;50.70;;;;;;5026423;28;20215;-89
2022/04/06 03:09:29;;;;;;;1.17;0.80;;;21.80;50.70;;;;;;5027268;28;20176;-89
2022/04/06 03:11:54;;;;;;;1.07;0.77;;;21.80;50.70;;;;;;5026336;28;20184;-89
2022/04/06 03:14:20;;;;;;;1.10;0.80;;;21.80;50.70;;;;;;5026850;28;20204;-89
2022/04/06 03:16:46;;;;;;;0.90;0.73;;;21.80;50.70;;;;;;5027131;28;20180;-89
2022/04/06 03:19:11;;;;;;;1.00;0.80;;;21.80;50.70;;;;;;5027117;28;20228;-88
2022/04/06 03:21:37;;;;;;;1.00;0.70;;;21.80;50.70;;;;;;5028167;28;20188;-89
2022/04/06 03:24:03;;;;;;;1.20;0.80;;;21.80;50.70;;;;;;5028100;28;20283;-90
2022/04/06 03:26:28;;;;;;;0.90;0.70;;;21.80;50.70;;;;;;5024978;28;20228;-89
2022/04/06 03:28:54;;;;;;;1.10;0.80;;;21.90;50.80;;;;;;5023180;28;20184;-89
2022/04/06 03:31:21;;;;;;;0.80;0.60;;;21.80;50.70;;;;;;5042114;28;20528;-90
2022/04/06 03:33:47;;;;;;;0.90;0.77;;;21.80;50.70;;;;;;5024660;28;20196;-89
2022/04/06 03:36:12;;;;;;;1.47;0.80;;;21.80;50.70;;;;;;5025295;28;20522;-89
2022/04/06 03:38:38;;;;;;;0.83;0.70;;;21.80;50.70;;;;;;5026984;28;20181;-88
2022/04/06 03:41:04;;;;;;;1.00;0.70;;;21.80;50.70;;;;;;5041903;28;20626;-89
2022/04/06 03:43:30;;;;;;;1.10;0.80;;;21.80;50.70;;;;;;5025939;28;20669;-90
2022/04/06 03:46:01;;;;;;;0.90;0.70;;;21.80;50.70;;;;;;5033471;28;20723;-87
2022/04/06 03:48:27;;;;;;;1.10;0.80;;;21.80;50.70;;;;;;5018734;28;20428;-89
2022/04/06 03:54:15;;;;;;;1.00;0.70;;;21.80;50.70;;;;;;5026387;28;20199;-88
2022/04/06 03:56:41;;;;;;;1.13;0.90;;;21.80;50.70;;;;;;5023874;28;20494;-89
2022/04/06 03:59:06;;;;;;;1.00;0.80;;;21.80;50.70;;;;;;5026494;28;20192;-89
2022/04/06 04:01:35;;;;;;;1.00;0.80;;;21.80;50.70;;;;;;5025087;28;20197;-89
2022/04/06 04:04:01;;;;;;;1.40;1.30;;;21.80;50.70;;;;;;5024901;28;20219;-88
2022/04/06 04:06:27;;;;;;;1.00;0.80;;;21.80;51.30;;;;;;5034637;28;20459;-89
2022/04/06 04:08:53;;;;;;;1.00;0.80;;;21.80;50.70;;;;;;5016968;28;20432;-89
2022/04/06 04:11:18;;;;;;;1.10;0.80;;;21.80;51.30;;;;;;5027561;28;20212;-90
2022/04/06 04:13:44;;;;;;;0.93;0.70;;;21.80;50.70;;;;;;5035877;28;20704;-90
2022/04/06 04:19:32;;;;;;;1.50;0.97;;;21.80;50.70;;;;;;5027548;28;20199;-88
2022/04/06 04:21:58;;;;;;;0.93;0.77;;;21.80;50.80;;;;;;5029526;28;20495;-89
2022/04/06 04:24:24;;;;;;;1.33;0.90;;;21.80;50.80;;;;;;5021793;28;20210;-88
2022/04/06 04:30:13;;;;;;;1.13;0.70;;;21.80;50.80;;;;;;5026896;28;20199;-89
2022/04/06 04:32:39;;;;;;;1.00;0.80;;;21.80;50.80;;;;;;5026277;28;20433;-88
2022/04/06 04:35:06;;;;;;;0.93;0.80;;;21.80;50.80;;;;;;5026677;28;20427;-89
2022/04/06 04:37:33;;;;;;;1.10;0.80;;;21.80;50.80;;;;;;5026216;28;20185;-89
2022/04/06 04:39:59;;;;;;;1.00;0.70;;;21.80;50.80;;;;;;5025645;28;20431;-89
2022/04/06 04:42:24;;;;;;;1.10;0.90;;;21.80;50.80;;;;;;5025624;28;20465;-90
2022/04/06 04:44:50;;;;;;;0.90;0.80;;;21.80;50.70;;;;;;5025257;28;20208;-90
2022/04/06 04:47:16;;;;;;;1.20;0.80;;;21.80;50.70;;;;;;5024413;28;20208;-88
2022/04/06 04:49:43;;;;;;;1.20;0.80;;;21.80;50.70;;;;;;5026748;28;20176;-88
2022/04/06 04:52:09;;;;;;;1.00;0.80;;;21.80;50.70;;;;;;5025829;28;20427;-88
2022/04/06 04:54:36;;;;;;;1.67;0.83;;;21.80;50.70;;;;;;5033169;28;20431;-89
2022/04/06 04:57:02;;;;;;;1.70;1.10;;;21.80;50.70;;;;;;5025556;28;20435;-90
2022/04/06 04:59:28;;;;;;;1.63;0.80;;;21.80;50.70;;;;;;5026174;28;20439;-89
2022/04/06 05:01:54;;;;;;;1.10;0.77;;;21.80;50.70;;;;;;5024881;28;20439;-88
2022/04/06 05:04:20;;;;;;;1.67;0.70;;;21.80;50.70;;;;;;5024987;28;20199;-89
2022/04/06 05:06:46;;;;;;;1.20;0.70;;;21.80;50.70;;;;;;5025948;28;20204;-88
2022/04/06 05:09:11;;;;;;;1.00;0.80;;;21.90;50.70;;;;;;5028090;28;20438;-89
2022/04/06 05:11:37;;;;;;;0.80;0.60;;;21.90;50.70;;;;;;5028929;28;20172;-89
2022/04/06 05:14:03;;;;;;;2.00;0.80;;;21.90;50.70;;;;;;5026617;28;20205;-89
2022/04/06 05:16:30;;;;;;;0.90;0.70;;;21.90;50.70;;;;;;5026212;28;20181;-88
2022/04/06 05:18:56;;;;;;;1.87;0.70;;;21.90;50.70;;;;;;5030283;28;20176;-88
2022/04/06 05:21:22;;;;;;;1.97;0.63;;;21.90;50.70;;;;;;5028419;28;20423;-88
2022/04/06 05:23:48;;;;;;;1.00;0.80;;;21.90;50.70;;;;;;5030110;28;20673;-87
2022/04/06 05:26:13;;;;;;;0.80;0.67;;;21.90;50.70;;;;;;5030418;28;20212;-87
2022/04/06 05:28:39;;;;;;;1.20;0.80;;;21.90;50.70;;;;;;5027347;28;20192;-87
2022/04/06 05:31:30;;;;;;;1.00;0.70;;;21.90;50.70;;;;;;5028084;28;20259;-86
2022/04/06 05:33:55;;;;;;;2.03;0.80;;;21.90;50.70;;;;;;5020524;28;20189;-87
2022/04/06 05:36:23;;;;;;;1.03;0.73;;;21.90;50.70;;;;;;5026013;28;20455;-88
2022/04/06 05:38:49;;;;;;;1.90;0.90;;;21.90;50.70;;;;;;5025139;28;20184;-88
2022/04/06 05:41:14;;;;;;;1.43;1.00;;;21.90;50.70;;;;;;5026443;28;20454;-87
2022/04/06 05:43:40;;;;;;;0.90;0.70;;;21.90;50.70;;;;;;5026048;28;20263;-87
2022/04/06 05:46:06;;;;;;;0.90;0.60;;;21.90;50.70;;;;;;5025572;28;20227;-87
2022/04/06 05:48:31;;;;;;;0.97;0.87;;;21.90;50.70;;;;;;5024342;28;20203;-87
2022/04/06 05:50:57;;;;;;;1.10;0.80;;;21.90;50.70;;;;;;5026218;28;20189;-87
2022/04/06 05:53:29;;;;;;;1.30;0.80;;;21.90;50.70;;;;;;5026032;28;20181;-88
2022/04/06 05:55:55;;;;;;;1.67;0.97;;;21.90;50.70;;;;;;5016904;28;20180;-88
2022/04/06 05:58:25;;;;;;;2.70;0.90;;;21.90;50.70;;;;;;5026032;28;20529;-87
2022/04/06 06:00:51;;;;;;;1.47;0.77;;;21.90;50.70;;;;;;5028552;28;20196;-88
2022/04/06 06:03:17;;;;;;;3.00;0.90;;;21.90;50.70;;;;;;5029076;28;20438;-87
2022/04/06 06:05:43;;;;;;;1.23;0.80;;;21.90;50.70;;;;;;5029337;28;20446;-86
2022/04/06 06:08:09;;;;;;;1.33;0.87;;;21.90;50.70;;;;;;5032584;28;20236;-88
2022/04/06 06:10:35;;;;;;;0.87;0.70;;;21.90;50.70;;;;;;5035087;28;20434;-87
2022/04/06 06:13:03;;;;;;;1.07;0.73;;;21.90;50.70;;;;;;5025856;28;20176;-87
2022/04/06 06:15:29;;;;;;;1.00;0.80;;;21.90;50.70;;;;;;5032131;28;20423;-87
2022/04/06 06:21:31;;;;;;;0.80;0.60;;;22.00;50.70;;;;;;5025157;28;20442;-88
2022/04/06 06:24:02;;;;;;;1.10;0.90;;;21.90;50.70;;;;;;5034552;28;20921;-88
2022/04/06 06:26:28;;;;;;;1.20;0.73;;;21.90;50.70;;;;;;5032268;28;20459;-88
2022/04/06 06:28:59;;;;;;;1.10;0.70;;;21.90;50.70;;;;;;5031614;28;20845;-88
2022/04/06 06:31:25;;;;;;;0.90;0.70;;;22.00;50.80;;;;;;5030357;28;20438;-88
2022/04/06 06:33:51;;;;;;;0.90;0.67;;;21.90;50.70;;;;;;5028714;28;20420;-88
2022/04/06 06:36:17;;;;;;;0.90;0.60;;;22.00;50.80;;;;;;5028548;28;20425;-88
2022/04/06 06:38:43;;;;;;;0.93;0.70;;;22.00;50.80;;;;;;5030263;28;20435;-88
2022/04/06 06:41:12;;;;;;;1.13;0.70;;;22.00;50.80;;;;;;5030168;28;20216;-88
2022/04/06 06:43:38;;;;;;;1.70;0.80;;;22.00;50.80;;;;;;5029665;28;20188;-88
2022/04/06 06:46:05;;;;;;;1.00;0.80;;;22.00;50.80;;;;;;5022418;28;20451;-88
2022/04/06 06:48:33;;;;;;;1.50;0.90;;;22.00;50.80;;;;;;5030891;28;20411;-88
2022/04/06 06:51:02;;;;;;;1.10;0.80;;;22.00;50.80;;;;;;5030591;28;20518;-88
2022/04/06 06:53:30;;;;;;;1.00;0.70;;;22.00;50.70;;;;;;5031200;28;20415;-88
2022/04/06 06:55:57;;;;;;;1.07;0.60;;;21.90;50.70;;;;;;5030912;28;20494;-88
2022/04/06 06:58:22;;;;;;;1.10;0.70;;;22.00;50.70;;;;;;5029526;28;20431;-88
2022/04/06 07:00:51;;;;;;;0.90;0.80;;;22.00;50.70;;;;;;5028747;28;20788;-86
2022/04/06 07:03:20;;;;;;;2.23;0.80;;;22.00;50.70;;;;;;5029709;28;20427;-86
2022/04/06 07:05:47;;;;;;;1.00;0.90;;;22.00;50.70;;;;;;5030582;28;20462;-87
2022/04/06 07:08:16;;;;;;;1.00;0.70;;;22.00;50.80;;;;;;5032442;28;20450;-88
2022/04/06 07:10:46;;;;;;;0.90;0.73;;;22.00;50.70;;;;;;5032289;28;20426;-88
2022/04/06 07:13:17;;;;;;;0.97;0.70;;;21.90;50.70;;;;;;5030078;28;20450;-88
2022/04/06 07:15:47;;;;;;;1.17;0.80;;;21.90;50.70;;;;;;5030751;28;20495;-87
2022/04/06 07:18:14;;;;;;;1.33;1.23;;;21.90;50.70;;;;;;5029932;28;20431;-88
2022/04/06 07:20:45;;;;;;;1.20;0.80;;;21.90;50.70;;;;;;5031027;28;20450;-88
2022/04/06 07:23:11;;;;;;;1.00;0.80;;;21.90;50.70;;;;;;5022608;28;20423;-88
2022/04/06 07:25:37;;;;;;;1.00;0.70;;;21.90;50.70;;;;;;5029674;28;20513;-88
2022/04/06 07:28:03;;;;;;;1.27;0.70;;;21.90;50.70;;;;;;5029755;28;20215;-88
2022/04/06 07:30:35;;;;;;;1.20;0.80;;;21.90;50.70;;;;;;5030596;28;20195;-87
2022/04/06 07:33:01;;;;;;;1.03;0.70;;;21.90;50.70;;;;;;5029947;28;20419;-87
2022/04/06 07:35:27;;;;;;;0.90;0.70;;;21.90;50.70;;;;;;5030039;28;20457;-88
2022/04/06 07:37:59;;;;;;;1.00;0.70;;;21.90;50.70;;;;;;5029038;28;20184;-88
2022/04/06 07:40:24;;;;;;;1.20;0.80;;;21.90;50.70;;;;;;5014603;28;20423;-87
2022/04/06 07:42:52;;;;;;;0.90;0.80;;;21.90;50.70;;;;;;5031576;28;20426;-87
2022/04/06 07:45:22;;;;;;;1.10;0.80;;;21.90;50.70;;;;;;5033404;28;20204;-87
2022/04/06 07:47:52;;;;;;;0.97;0.70;;;21.90;50.70;;;;;;5030181;28;20434;-88
2022/04/06 07:50:20;;;;;;;1.20;0.90;;;21.90;50.70;;;;;;5031863;28;20443;-87
2022/04/06 07:52:46;;;;;;;0.90;0.70;;;21.90;50.70;;;;;;5033252;28;20446;-87
2022/04/06 07:55:12;;;;;;;1.40;0.80;;;21.90;50.70;;;;;;5030118;28;20424;-88
2022/04/06 07:57:39;;;;;;;1.37;0.70;;;21.90;50.70;;;;;;5032442;28;20407;-88
2022/04/06 08:00:13;;;;;;;0.93;0.70;;;21.90;50.70;;;;;;5047374;28;20542;-88
2022/04/06 08:02:39;;;;;;;1.30;0.80;;;22.00;51.40;;;;;;5029272;28;20422;-88
2022/04/06 08:05:05;;;;;;;1.00;0.80;;;21.90;50.70;;;;;;5028940;28;20459;-88
2022/04/06 08:07:32;;;;;;;0.80;0.60;;;22.00;50.80;;;;;;5028522;28;20211;-88
2022/04/06 08:09:59;;;;;;;0.90;0.70;;;21.90;50.70;;;;;;5044540;28;20492;-88
2022/04/06 08:12:25;;;;;;;1.93;0.90;;;21.90;50.70;;;;;;5029629;28;20486;-88
2022/04/06 08:14:53;;;;;;;0.97;0.83;;;22.00;50.80;;;;;;5046838;28;20427;-87
2022/04/06 08:17:19;;;;;;;1.00;0.70;;;22.00;50.80;;;;;;5032050;28;20419;-88
2022/04/06 08:19:45;;;;;;;0.87;0.67;;;21.90;50.70;;;;;;5028179;28;20416;-88
2022/04/06 08:22:13;;;;;;;0.93;0.77;;;22.00;50.80;;;;;;5031724;28;20183;-88
2022/04/06 08:24:39;;;;;;;1.13;0.83;;;21.90;50.70;;;;;;5031323;28;20176;-87
2022/04/06 08:27:05;;;;;;;0.80;0.70;;;21.90;50.70;;;;;;5029122;28;20415;-87
2022/04/06 08:29:31;;;;;;;1.13;0.70;;;21.90;50.70;;;;;;5031863;28;20195;-87
2022/04/06 08:31:57;;;;;;;1.13;0.70;;;22.00;50.80;;;;;;5046607;28;20529;-88
2022/04/06 08:34:23;;;;;;;1.13;0.70;;;21.90;50.70;;;;;;5044479;28;20438;-87
2022/04/06 08:36:49;;;;;;;0.90;0.70;;;21.90;50.70;;;;;;5028553;28;20776;-87
2022/04/06 08:39:14;;;;;;;0.97;0.80;;;21.90;50.70;;;;;;5044218;28;20194;-88
2022/04/06 08:41:40;;;;;;;1.10;0.70;;;21.90;51.30;;;;;;5028389;28;20198;-88
2022/04/06 08:44:58;;;;;;;1.17;1.07;;;21.90;50.70;;;;;;5028287;28;20192;-88
2022/04/06 08:47:25;;;;;;;0.90;0.70;;;21.90;50.70;;;;;;5028157;28;20196;-88
2022/04/06 08:49:52;;;;;;;1.30;0.80;;;21.90;50.80;;;;;;5030591;28;20415;-87
2022/04/06 08:52:18;;;;;;;1.00;0.70;;;21.90;50.80;;;;;;5027743;28;20427;-88
2022/04/06 08:54:44;;;;;;;0.90;0.67;;;21.90;51.10;;;;;;5027212;28;20411;-87
2022/04/06 08:57:12;;;;;;;0.90;0.70;;;21.90;50.80;;;;;;5029747;28;20407;-87
2022/04/06 08:59:41;;;;;;;0.90;0.70;;;21.90;50.80;;;;;;5028422;28;20454;-87
2022/04/06 09:02:11;;;;;;;0.90;0.70;;;21.90;50.80;;;;;;5026322;28;20430;-87
2022/04/06 09:04:42;;;;;;;0.80;0.70;;;21.90;50.80;;;;;;5029347;28;20427;-87
2022/04/06 09:07:10;;;;;;;1.90;0.70;;;22.00;50.90;;;;;;5027858;28;20913;-86
2022/04/06 09:10:08;;;;;;;;;;;;;;;;;;;;;
2022/04/06 09:12:34;;;;;;;0.90;0.80;;;22.00;50.90;;;;;;5027672;28;20455;-86
2022/04/06 09:15:08;;;;;;;0.80;0.70;;;22.00;50.90;;;;;;5025968;28;20438;-86
2022/04/06 09:17:49;;;;;;;1.60;0.80;;;22.00;50.90;;;;;;5026142;28;20179;-85
2022/04/06 09:20:19;;;;;;;0.87;0.60;;;22.00;50.90;;;;;;5025453;28;20419;-87
2022/04/06 09:22:45;;;;;;;1.60;0.90;;;22.10;50.90;;;;;;5026971;28;20434;-87
2022/04/06 09:25:11;;;;;;;0.83;0.60;;;22.10;50.90;;;;;;5034418;28;20455;-87
2022/04/06 09:27:40;;;;;;;0.90;0.63;;;22.10;50.90;;;;;;5023941;28;20176;-87
2022/04/06 09:30:08;;;;;;;0.80;0.60;;;22.10;50.90;;;;;;5026850;28;20179;-86
2022/04/06 09:32:34;;;;;;;0.90;0.80;;;22.10;50.90;;;;;;5019246;28;20419;-87
2022/04/06 09:42:00;;;;;;;1.00;0.70;;;22.10;50.90;;;;;;5012876;28;20410;-86
2022/04/06 09:50:14;;;;;;;1.07;0.83;;;22.20;51.00;;;;;;5018183;28;20431;-87
2022/04/06 09:52:42;;;;;;;0.93;0.73;;;22.20;51.00;;;;;;5042738;28;20450;-87
2022/04/06 09:55:10;;;;;;;1.00;0.80;;;22.20;51.60;;;;;;5017133;28;20453;-87
2022/04/06 09:57:41;;;;;;;1.00;0.60;;;22.20;51.00;;;;;;5029582;28;20415;-86
2022/04/06 10:00:12;;;;;;;2.03;0.90;;;22.20;50.90;;;;;;5029301;28;20439;-87
2022/04/06 10:02:41;;;;;;;0.93;0.70;;;22.20;50.90;;;;;;5029053;28;20438;-86
2022/04/06 10:05:11;;;;;;;0.93;0.60;;;22.30;51.00;;;;;;5029609;28;20489;-86
2022/04/06 10:07:42;;;;;;;0.90;0.77;;;22.30;50.90;;;;;;5027157;28;20420;-87
2022/04/06 10:10:08;;;;;;;1.10;0.70;;;22.30;50.90;;;;;;5024594;28;20446;-87
2022/04/06 10:12:35;;;;;;;0.87;0.67;;;22.30;50.90;;;;;;5026857;28;20443;-87
2022/04/06 10:15:01;;;;;;;1.07;0.80;;;22.30;50.90;;;;;;5028200;28;20411;-87
2022/04/06 10:17:29;;;;;;;1.10;0.73;;;22.30;50.90;;;;;;5028650;28;20897;-87
2022/04/06 10:27:09;;;;;;;0.90;0.60;;;22.30;50.90;;;;;;5027193;28;20466;-87
2022/04/06 10:30:09;;;;;;;1.20;0.80;;;22.30;51.00;;;;;;5033113;28;20424;-87
2022/04/06 10:32:36;;;;;;;0.93;0.70;;;22.30;51.00;;;;;;5025488;28;20469;-87
2022/04/06 10:35:32;;;;;;;0.80;0.60;;;22.30;51.00;;;;;;5027061;28;20482;-87
2022/04/06 10:38:00;;;;;;;0.90;0.70;;;22.30;50.90;;;;;;5043491;28;20436;-89
2022/04/06 10:40:42;;;;;;;1.00;0.77;;;22.30;51.00;;;;;;5026027;28;20455;-89
2022/04/06 10:43:34;;;;;;;0.90;0.70;;;22.30;50.90;;;;;;5028498;28;20419;-88
2022/04/06 10:46:00;;;;;;;1.07;0.70;;;22.40;51.00;;;;;;5020223;28;20454;-89
2022/04/06 10:48:26;;;;;;;1.97;1.03;;;22.40;51.00;;;;;;5024762;28;20413;-88
2022/04/06 10:50:53;;;;;;;1.67;0.60;;;22.40;51.00;;;;;;5044032;28;20411;-88
2022/04/06 10:53:19;;;;;;;1.13;1.03;;;22.40;51.00;;;;;;5023989;28;20417;-88
2022/04/06 10:56:12;;;;;;;1.47;0.77;;;22.40;50.90;;;;;;5024418;28;20516;-87
2022/04/06 10:58:55;;;;;;;1.33;1.07;;;22.40;50.90;;;;;;5026030;28;20188;-88
2022/04/06 11:01:33;;;;;;;3.47;1.80;;;22.40;50.90;;;;;;5025515;28;20502;-89
2022/04/06 11:04:04;;;;;;;5.07;2.37;;;22.40;50.90;;;;;;5025650;28;20430;-88
2022/04/06 11:07:05;;;;;;;5.00;2.93;;;22.40;50.90;;;;;;5024118;28;20486;-88
2022/04/06 11:12:34;;;;;;;6.90;3.53;;;22.40;50.90;;;;;;5003429;28;20440;-88
2022/04/06 11:15:00;;;;;;;7.40;3.97;;;22.40;50.90;;;;;;4982793;28;20426;-88
2022/04/06 11:17:34;;;;;;;8.30;4.67;;;22.40;50.90;;;;;;4990065;28;20464;-88
2022/04/06 11:23:07;;;;;;;14.43;4.13;;;22.40;50.90;;;;;;5006169;28;20415;-87
2022/04/06 11:25:33;;;;;;;10.50;4.60;;;22.40;51.00;;;;;;4990049;28;20460;-89
2022/04/06 11:28:13;;;;;;;9.20;5.27;;;22.40;51.00;;;;;;4987545;28;20458;-88
2022/04/06 11:30:43;;;;;;;16.33;5.83;;;22.40;51.00;;;;;;5006198;28;20519;-88
2022/04/06 11:33:09;;;;;;;12.80;6.10;;;22.40;51.00;;;;;;4988488;28;20432;-87
2022/04/06 11:35:36;;;;;;;11.50;5.00;;;22.40;51.00;;;;;;4988942;28;20421;-86
2022/04/06 11:38:09;;;;;;;14.33;5.60;;;22.40;51.00;;;;;;4991154;28;20452;-87
2022/04/06 11:40:41;;;;;;;12.50;5.00;;;22.40;51.00;;;;;;4984390;28;20428;-89
2022/04/06 11:43:06;;;;;;;11.97;6.00;;;22.40;50.90;;;;;;4990020;28;20431;-86
2022/04/06 11:45:34;;;;;;;18.57;6.33;;;22.40;51.00;;;;;;4994034;28;20459;-87
2022/04/06 11:48:12;;;;;;;11.40;6.63;;;22.40;50.90;;;;;;5025514;28;20248;-86
2022/04/06 11:50:39;;;;;;;11.03;5.03;;;22.40;50.90;;;;;;5025355;28;20432;-86
2022/04/06 11:53:28;;;;;;;11.00;5.20;;;22.40;51.00;;;;;;5025504;28;20415;-86
2022/04/06 11:55:59;;;;;;;9.20;5.20;;;22.40;51.00;;;;;;4930283;29;20459;-86
2022/04/06 11:58:32;;;;;;;12.77;5.53;;;22.40;51.00;;;;;;4914991;29;20439;-85
2022/04/06 12:01:02;;;;;;;10.27;5.60;;;22.40;51.00;;;;;;4916423;29;20456;-85
2022/04/06 12:03:32;;;;;;;10.37;4.70;;;22.40;51.00;;;;;;4932233;29;20431;-85
2022/04/06 12:05:58;;;;;;;10.03;5.13;;;22.40;51.00;;;;;;4916744;29;20476;-86
2022/04/06 12:08:24;;;;;;;11.53;5.43;;;22.40;51.00;;;;;;4915986;29;20424;-86
2022/04/06 12:10:58;;;;;;;12.20;4.97;;;22.40;51.00;;;;;;4916290;29;20536;-86
2022/04/06 12:13:27;;;;;;;13.50;5.17;;;22.40;51.00;;;;;;4916644;29;20183;-87
2022/04/06 12:15:55;;;;;;;7.97;4.00;;;22.40;51.00;;;;;;4915869;29;20503;-86
2022/04/06 12:18:28;;;;;;;13.93;5.60;;;22.40;51.00;;;;;;4932349;29;20422;-86
2022/04/06 12:20:57;;;;;;;10.93;5.40;;;22.40;51.00;;;;;;4916102;29;20491;-86
2022/04/06 12:23:27;;;;;;;8.27;4.93;;;22.40;51.00;;;;;;4931917;29;20428;-86
2022/04/06 12:25:58;;;;;;;8.20;5.20;;;22.40;51.00;;;;;;4931843;29;20455;-86
2022/04/06 12:28:26;;;;;;;9.87;4.90;;;22.40;51.00;;;;;;4932182;29;20400;-86
2022/04/06 12:30:55;;;;;;;6.57;3.90;;;22.40;51.20;;;;;;4916335;29;20428;-86
2022/04/06 12:33:40;;;;;;;11.17;4.33;;;22.40;51.00;;;;;;4993050;28;20418;-86
2022/04/06 12:36:35;;;;;;;8.17;4.40;;;22.40;51.00;;;;;;5029810;28;20423;-86
2022/04/06 12:39:24;;;;;;;10.73;4.93;;;22.40;51.00;;;;;;4970415;29;20425;-86
2022/04/06 12:41:52;;;;;;;10.93;5.30;;;22.40;51.00;;;;;;4970563;29;20450;-86
2022/04/06 12:44:22;;;;;;;10.80;5.80;;;22.30;50.90;;;;;;4969756;29;20434;-86
2022/04/06 12:46:49;;;;;;;10.10;5.13;;;22.30;50.90;;;;;;4952651;29;20470;-86
2022/04/06 12:49:37;;;;;;;9.43;5.57;;;22.30;51.00;;;;;;4951915;29;20424;-85
2022/04/06 12:52:12;;;;;;;11.27;6.23;;;22.40;51.00;;;;;;4969197;29;20795;-85
2022/04/06 12:54:40;;;;;;;9.90;4.80;;;22.30;50.90;;;;;;4969031;29;20456;-85
2022/04/06 12:57:17;;;;;;;6.87;4.97;;;22.30;51.50;;;;;;4969285;29;20426;-86
2022/04/06 12:59:45;;;;;;;7.73;4.83;;;22.30;50.90;;;;;;4969792;29;20449;-87
2022/04/06 13:02:36;;;;;;;11.17;4.73;;;22.30;50.90;;;;;;4953329;29;20498;-87
2022/04/06 13:05:10;;;;;;;12.90;4.90;;;22.40;51.00;;;;;;4969660;29;20935;-87
2022/04/06 13:11:02;;;;;;;7.67;4.00;;;22.30;51.00;;;;;;4975952;29;20470;-87
2022/04/06 13:13:28;;;;;;;9.50;4.60;;;22.30;51.00;;;;;;4959408;29;20967;-87
2022/04/06 13:15:54;;;;;;;12.97;5.70;;;22.30;51.00;;;;;;5028100;28;20446;-87
2022/04/06 13:18:20;;;;;;;7.50;4.57;;;22.30;51.00;;;;;;5035171;28;20607;-87
2022/04/06 13:20:47;;;;;;;15.70;5.43;;;22.30;51.00;;;;;;5035519;28;20696;-87
2022/04/06 13:23:13;;;;;;;6.77;3.87;;;22.30;51.00;;;;;;5035284;28;20426;-87
2022/04/06 13:25:43;;;;;;;11.13;4.87;;;22.30;51.00;;;;;;5034726;28;20458;-86
2022/04/06 13:28:16;;;;;;;11.10;4.60;;;22.30;51.00;;;;;;5035426;28;20228;-87
2022/04/06 13:30:44;;;;;;;7.37;4.93;;;22.30;51.00;;;;;;5036417;28;20463;-87
2022/04/06 13:33:12;;;;;;;8.13;4.17;;;22.30;51.00;;;;;;5035877;28;20415;-87
2022/04/06 13:35:38;;;;;;;8.03;5.00;;;22.30;51.00;;;;;;5036467;28;20414;-86
2022/04/06 13:38:04;;;;;;;7.03;4.40;;;22.30;51.00;;;;;;5036314;28;20419;-87
2022/04/06 13:40:30;;;;;;;9.80;4.80;;;22.30;51.00;;;;;;5035304;28;20184;-86
2022/04/06 13:42:55;;;;;;;7.10;4.47;;;22.30;51.00;;;;;;5035455;28;20203;-87
2022/04/06 13:45:22;;;;;;;9.80;4.13;;;22.30;51.00;;;;;;5036591;28;20200;-86